sensor_id;sensor_type;location;lat;lon;timestamp;temperature;humidity
85456;DHT22;75846;43.732;10.404;2024-02-28T00:01:51;12.30;99.90
85456;DHT22;75846;43.732;10.404;2024-02-28T00:04:18;12.30;99.90
85456;DHT22;75846;43.732;10.404;2024-02-28T00:06:46;12.30;99.90
85456;DHT22;75846;43.732;10.404;2024-02-28T00:09:14;12.30;99.90
85456;DHT22;75846;43.732;10.404;2024-02-28T00:11:43;12.30;99.90
85456;DHT22;75846;43.732;10.404;2024-02-28T00:14:11;12.30;99.90
85456;DHT22;75846;43.732;10.404;2024-02-28T00:16:40;12.40;99.90
85456;DHT22;75846;43.732;10.404;2024-02-28T00:19:07;12.40;99.90
85456;DHT22;75846;43.732;10.404;2024-02-28T00:21:34;12.40;99.90
85456;DHT22;75846;43.732;10.404;2024-02-28T00:24:01;12.40;99.90
85456;DHT22;75846;43.732;10.404;2024-02-28T00:26:30;12.40;99.90
85456;DHT22;75846;43.732;10.404;2024-02-28T00:28:57;12.30;99.90
85456;DHT22;75846;43.732;10.404;2024-02-28T00:31:24;12.30;99.90
85456;DHT22;75846;43.732;10.404;2024-02-28T00:33:52;12.30;99.90
85456;DHT22;75846;43.732;10.404;2024-02-28T00:36:19;12.30;99.90
85456;DHT22;75846;43.732;10.404;2024-02-28T00:38:46;12.30;99.90
85456;DHT22;75846;43.732;10.404;2024-02-28T00:41:13;12.30;99.90
85456;DHT22;75846;43.732;10.404;2024-02-28T00:43:42;12.20;99.90
85456;DHT22;75846;43.732;10.404;2024-02-28T00:46:09;12.30;99.90
85456;DHT22;75846;43.732;10.404;2024-02-28T00:48:37;12.20;99.90
85456;DHT22;75846;43.732;10.404;2024-02-28T00:51:04;12.20;99.90
85456;DHT22;75846;43.732;10.404;2024-02-28T00:53:32;12.30;99.90
85456;DHT22;75846;43.732;10.404;2024-02-28T00:55:59;12.20;99.90
85456;DHT22;75846;43.732;10.404;2024-02-28T00:58:26;12.20;99.90
85456;DHT22;75846;43.732;10.404;2024-02-28T01:00:57;12.30;99.90
85456;DHT22;75846;43.732;10.404;2024-02-28T01:03:24;12.20;99.90
85456;DHT22;75846;43.732;10.404;2024-02-28T01:05:52;12.30;99.90
85456;DHT22;75846;43.732;10.404;2024-02-28T01:08:19;12.30;99.90
85456;DHT22;75846;43.732;10.404;2024-02-28T01:10:46;12.30;99.90
85456;DHT22;75846;43.732;10.404;2024-02-28T01:13:14;12.30;99.90
85456;DHT22;75846;43.732;10.404;2024-02-28T01:15:41;12.30;99.90
85456;DHT22;75846;43.732;10.404;2024-02-28T01:18:10;12.30;99.90
85456;DHT22;75846;43.732;10.404;2024-02-28T01:20:37;12.30;99.90
85456;DHT22;75846;43.732;10.404;2024-02-28T01:23:05;12.30;99.90
85456;DHT22;75846;43.732;10.404;2024-02-28T01:25:32;12.20;99.90
85456;DHT22;75846;43.732;10.404;2024-02-28T01:27:59;12.20;99.90
85456;DHT22;75846;43.732;10.404;2024-02-28T01:30:26;12.10;99.90
85456;DHT22;75846;43.732;10.404;2024-02-28T01:32:53;12.00;99.90
85456;DHT22;75846;43.732;10.404;2024-02-28T01:35:22;12.00;99.90
85456;DHT22;75846;43.732;10.404;2024-02-28T01:37:49;11.90;99.90
85456;DHT22;75846;43.732;10.404;2024-02-28T01:40:16;11.80;99.90
85456;DHT22;75846;43.732;10.404;2024-02-28T01:42:43;11.80;99.90
85456;DHT22;75846;43.732;10.404;2024-02-28T01:45:14;11.70;99.90
85456;DHT22;75846;43.732;10.404;2024-02-28T01:47:41;11.80;99.90
85456;DHT22;75846;43.732;10.404;2024-02-28T01:50:09;11.70;99.90
85456;DHT22;75846;43.732;10.404;2024-02-28T01:52:39;11.70;99.90
85456;DHT22;75846;43.732;10.404;2024-02-28T01:55:08;11.70;99.90
85456;DHT22;75846;43.732;10.404;2024-02-28T01:57:37;11.60;99.90
85456;DHT22;75846;43.732;10.404;2024-02-28T02:00:06;11.60;99.90
85456;DHT22;75846;43.732;10.404;2024-02-28T02:02:34;11.70;99.90
85456;DHT22;75846;43.732;10.404;2024-02-28T02:05:01;11.70;99.90
85456;DHT22;75846;43.732;10.404;2024-02-28T02:07:28;11.70;99.90
85456;DHT22;75846;43.732;10.404;2024-02-28T02:09:57;11.70;99.90
85456;DHT22;75846;43.732;10.404;2024-02-28T02:12:24;11.70;99.90
85456;DHT22;75846;43.732;10.404;2024-02-28T02:14:52;11.70;99.90
85456;DHT22;75846;43.732;10.404;2024-02-28T02:17:19;11.70;99.90
85456;DHT22;75846;43.732;10.404;2024-02-28T02:19:46;11.60;99.90
85456;DHT22;75846;43.732;10.404;2024-02-28T02:22:14;11.60;99.90
85456;DHT22;75846;43.732;10.404;2024-02-28T02:24:43;11.50;99.90
85456;DHT22;75846;43.732;10.404;2024-02-28T02:27:10;11.50;99.90
85456;DHT22;75846;43.732;10.404;2024-02-28T02:29:37;11.50;99.90
85456;DHT22;75846;43.732;10.404;2024-02-28T02:32:05;11.60;99.90
85456;DHT22;75846;43.732;10.404;2024-02-28T02:34:32;11.60;99.90
85456;DHT22;75846;43.732;10.404;2024-02-28T02:37:00;11.60;99.90
85456;DHT22;75846;43.732;10.404;2024-02-28T02:39:27;11.60;99.90
85456;DHT22;75846;43.732;10.404;2024-02-28T02:41:56;11.60;99.90
85456;DHT22;75846;43.732;10.404;2024-02-28T02:44:23;11.70;99.90
85456;DHT22;75846;43.732;10.404;2024-02-28T02:46:51;11.70;99.90
85456;DHT22;75846;43.732;10.404;2024-02-28T02:49:18;11.70;99.90
85456;DHT22;75846;43.732;10.404;2024-02-28T02:51:45;11.80;99.90
85456;DHT22;75846;43.732;10.404;2024-02-28T02:54:12;11.80;99.90
85456;DHT22;75846;43.732;10.404;2024-02-28T02:56:41;11.80;99.90
85456;DHT22;75846;43.732;10.404;2024-02-28T02:59:11;11.90;99.90
85456;DHT22;75846;43.732;10.404;2024-02-28T03:01:38;11.90;99.90
85456;DHT22;75846;43.732;10.404;2024-02-28T03:04:05;12.00;99.90
85456;DHT22;75846;43.732;10.404;2024-02-28T03:06:33;12.00;99.90
85456;DHT22;75846;43.732;10.404;2024-02-28T03:09:00;12.00;99.90
85456;DHT22;75846;43.732;10.404;2024-02-28T03:11:29;12.10;99.90
85456;DHT22;75846;43.732;10.404;2024-02-28T03:13:56;12.20;99.90
85456;DHT22;75846;43.732;10.404;2024-02-28T03:16:25;12.20;99.90
85456;DHT22;75846;43.732;10.404;2024-02-28T03:18:53;12.10;99.90
85456;DHT22;75846;43.732;10.404;2024-02-28T03:21:20;12.10;99.90
85456;DHT22;75846;43.732;10.404;2024-02-28T03:23:47;12.20;99.90
85456;DHT22;75846;43.732;10.404;2024-02-28T03:26:14;12.20;99.90
85456;DHT22;75846;43.732;10.404;2024-02-28T03:28:42;12.20;99.90
85456;DHT22;75846;43.732;10.404;2024-02-28T03:31:09;12.20;99.90
85456;DHT22;75846;43.732;10.404;2024-02-28T03:33:37;12.20;99.90
85456;DHT22;75846;43.732;10.404;2024-02-28T03:36:05;12.20;99.90
85456;DHT22;75846;43.732;10.404;2024-02-28T03:38:32;12.10;99.90
85456;DHT22;75846;43.732;10.404;2024-02-28T03:41:01;12.10;99.90
85456;DHT22;75846;43.732;10.404;2024-02-28T03:43:28;12.10;99.90
85456;DHT22;75846;43.732;10.404;2024-02-28T03:45:56;12.10;99.90
85456;DHT22;75846;43.732;10.404;2024-02-28T03:48:23;12.20;99.90
85456;DHT22;75846;43.732;10.404;2024-02-28T03:50:52;12.20;99.90
85456;DHT22;75846;43.732;10.404;2024-02-28T03:53:19;12.10;99.90
85456;DHT22;75846;43.732;10.404;2024-02-28T03:55:46;12.00;99.90
85456;DHT22;75846;43.732;10.404;2024-02-28T03:58:13;12.00;99.90
85456;DHT22;75846;43.732;10.404;2024-02-28T04:00:41;11.90;99.90
85456;DHT22;75846;43.732;10.404;2024-02-28T04:03:10;11.80;99.90
85456;DHT22;75846;43.732;10.404;2024-02-28T04:05:37;11.80;99.90
85456;DHT22;75846;43.732;10.404;2024-02-28T04:08:06;11.70;99.90
85456;DHT22;75846;43.732;10.404;2024-02-28T04:10:34;11.70;99.90
85456;DHT22;75846;43.732;10.404;2024-02-28T04:13:01;11.60;99.90
85456;DHT22;75846;43.732;10.404;2024-02-28T04:15:30;11.60;99.90
85456;DHT22;75846;43.732;10.404;2024-02-28T04:17:57;11.50;99.90
85456;DHT22;75846;43.732;10.404;2024-02-28T04:20:25;11.40;99.90
85456;DHT22;75846;43.732;10.404;2024-02-28T04:22:52;11.40;99.90
85456;DHT22;75846;43.732;10.404;2024-02-28T04:25:21;11.30;99.90
85456;DHT22;75846;43.732;10.404;2024-02-28T04:27:48;11.30;99.90
85456;DHT22;75846;43.732;10.404;2024-02-28T04:30:15;11.30;99.90
85456;DHT22;75846;43.732;10.404;2024-02-28T04:32:42;11.30;99.90
85456;DHT22;75846;43.732;10.404;2024-02-28T04:35:10;11.30;99.90
85456;DHT22;75846;43.732;10.404;2024-02-28T04:37:37;11.30;99.90
85456;DHT22;75846;43.732;10.404;2024-02-28T04:40:05;11.30;99.90
85456;DHT22;75846;43.732;10.404;2024-02-28T04:42:35;11.20;99.90
85456;DHT22;75846;43.732;10.404;2024-02-28T04:45:02;11.20;99.90
85456;DHT22;75846;43.732;10.404;2024-02-28T04:47:29;11.30;99.90
85456;DHT22;75846;43.732;10.404;2024-02-28T04:49:57;11.30;99.90
85456;DHT22;75846;43.732;10.404;2024-02-28T04:52:24;11.40;99.90
85456;DHT22;75846;43.732;10.404;2024-02-28T04:54:53;11.40;99.90
85456;DHT22;75846;43.732;10.404;2024-02-28T04:57:20;11.40;99.90
85456;DHT22;75846;43.732;10.404;2024-02-28T04:59:49;11.40;99.90
85456;DHT22;75846;43.732;10.404;2024-02-28T05:02:16;11.30;99.90
85456;DHT22;75846;43.732;10.404;2024-02-28T05:04:43;11.40;99.90
85456;DHT22;75846;43.732;10.404;2024-02-28T05:07:11;11.40;99.90
85456;DHT22;75846;43.732;10.404;2024-02-28T05:09:38;11.40;99.90
85456;DHT22;75846;43.732;10.404;2024-02-28T05:12:06;11.40;99.90
85456;DHT22;75846;43.732;10.404;2024-02-28T05:14:34;11.40;99.90
85456;DHT22;75846;43.732;10.404;2024-02-28T05:17:03;11.40;99.90
85456;DHT22;75846;43.732;10.404;2024-02-28T05:19:31;11.30;99.90
85456;DHT22;75846;43.732;10.404;2024-02-28T05:21:58;11.30;99.90
85456;DHT22;75846;43.732;10.404;2024-02-28T05:24:24;11.40;99.90
85456;DHT22;75846;43.732;10.404;2024-02-28T05:26:51;11.50;99.90
85456;DHT22;75846;43.732;10.404;2024-02-28T05:29:18;11.50;99.90
85456;DHT22;75846;43.732;10.404;2024-02-28T05:31:46;11.50;99.90
85456;DHT22;75846;43.732;10.404;2024-02-28T05:34:15;11.50;99.90
85456;DHT22;75846;43.732;10.404;2024-02-28T05:36:43;11.60;99.90
85456;DHT22;75846;43.732;10.404;2024-02-28T05:39:10;11.80;99.90
85456;DHT22;75846;43.732;10.404;2024-02-28T05:41:37;11.90;99.90
85456;DHT22;75846;43.732;10.404;2024-02-28T05:44:04;12.00;99.90
85456;DHT22;75846;43.732;10.404;2024-02-28T05:46:32;12.10;99.90
85456;DHT22;75846;43.732;10.404;2024-02-28T05:48:59;12.30;99.90
85456;DHT22;75846;43.732;10.404;2024-02-28T05:51:28;12.40;99.90
85456;DHT22;75846;43.732;10.404;2024-02-28T05:53:55;12.50;99.90
85456;DHT22;75846;43.732;10.404;2024-02-28T05:56:22;12.60;99.90
85456;DHT22;75846;43.732;10.404;2024-02-28T05:58:50;12.70;99.90
85456;DHT22;75846;43.732;10.404;2024-02-28T06:01:17;12.70;99.90
85456;DHT22;75846;43.732;10.404;2024-02-28T06:03:45;12.70;99.90
85456;DHT22;75846;43.732;10.404;2024-02-28T06:06:13;12.70;99.90
85456;DHT22;75846;43.732;10.404;2024-02-28T06:08:42;12.70;99.90
85456;DHT22;75846;43.732;10.404;2024-02-28T06:11:10;12.80;99.90
85456;DHT22;75846;43.732;10.404;2024-02-28T06:13:37;12.80;99.90
85456;DHT22;75846;43.732;10.404;2024-02-28T06:16:04;12.80;99.90
85456;DHT22;75846;43.732;10.404;2024-02-28T06:18:31;12.80;99.90
85456;DHT22;75846;43.732;10.404;2024-02-28T06:20:59;12.80;99.90
85456;DHT22;75846;43.732;10.404;2024-02-28T06:23:27;12.80;99.90
85456;DHT22;75846;43.732;10.404;2024-02-28T06:25:55;12.70;99.90
85456;DHT22;75846;43.732;10.404;2024-02-28T06:28:23;12.60;99.90
85456;DHT22;75846;43.732;10.404;2024-02-28T06:30:50;12.60;99.90
85456;DHT22;75846;43.732;10.404;2024-02-28T06:33:17;12.50;99.90
85456;DHT22;75846;43.732;10.404;2024-02-28T06:35:45;12.40;99.90
85456;DHT22;75846;43.732;10.404;2024-02-28T06:38:12;12.30;99.90
85456;DHT22;75846;43.732;10.404;2024-02-28T06:40:39;12.30;99.90
85456;DHT22;75846;43.732;10.404;2024-02-28T06:43:09;12.30;99.90
85456;DHT22;75846;43.732;10.404;2024-02-28T06:45:36;12.20;99.90
85456;DHT22;75846;43.732;10.404;2024-02-28T06:48:04;12.10;99.90
85456;DHT22;75846;43.732;10.404;2024-02-28T06:50:32;12.00;99.90
85456;DHT22;75846;43.732;10.404;2024-02-28T06:52:59;12.00;99.90
85456;DHT22;75846;43.732;10.404;2024-02-28T06:55:26;12.20;99.90
85456;DHT22;75846;43.732;10.404;2024-02-28T06:57:53;12.20;99.90
85456;DHT22;75846;43.732;10.404;2024-02-28T07:00:24;12.30;99.90
85456;DHT22;75846;43.732;10.404;2024-02-28T07:02:51;12.30;99.90
85456;DHT22;75846;43.732;10.404;2024-02-28T07:05:19;12.40;99.90
85456;DHT22;75846;43.732;10.404;2024-02-28T07:07:46;12.40;99.90
85456;DHT22;75846;43.732;10.404;2024-02-28T07:10:13;12.40;99.90
85456;DHT22;75846;43.732;10.404;2024-02-28T07:12:40;12.50;99.90
85456;DHT22;75846;43.732;10.404;2024-02-28T07:15:08;12.60;99.90
85456;DHT22;75846;43.732;10.404;2024-02-28T07:17:37;12.60;99.90
85456;DHT22;75846;43.732;10.404;2024-02-28T07:20:05;12.60;99.90
85456;DHT22;75846;43.732;10.404;2024-02-28T07:22:33;12.60;99.90
85456;DHT22;75846;43.732;10.404;2024-02-28T07:25:00;12.60;99.90
85456;DHT22;75846;43.732;10.404;2024-02-28T07:27:27;12.70;99.90
85456;DHT22;75846;43.732;10.404;2024-02-28T07:29:54;12.90;99.90
85456;DHT22;75846;43.732;10.404;2024-02-28T07:32:22;13.10;99.90
85456;DHT22;75846;43.732;10.404;2024-02-28T07:34:50;13.20;99.90
85456;DHT22;75846;43.732;10.404;2024-02-28T07:37:18;13.20;99.90
85456;DHT22;75846;43.732;10.404;2024-02-28T07:39:45;13.20;99.90
85456;DHT22;75846;43.732;10.404;2024-02-28T07:42:13;13.30;99.90
85456;DHT22;75846;43.732;10.404;2024-02-28T07:44:40;13.20;99.90
85456;DHT22;75846;43.732;10.404;2024-02-28T07:47:07;13.20;99.90
85456;DHT22;75846;43.732;10.404;2024-02-28T07:49:34;13.20;99.90
85456;DHT22;75846;43.732;10.404;2024-02-28T07:52:03;13.20;99.90
85456;DHT22;75846;43.732;10.404;2024-02-28T07:54:31;13.00;99.90
85456;DHT22;75846;43.732;10.404;2024-02-28T07:56:58;12.80;99.90
85456;DHT22;75846;43.732;10.404;2024-02-28T07:59:25;12.70;99.90
85456;DHT22;75846;43.732;10.404;2024-02-28T08:01:53;12.50;99.90
85456;DHT22;75846;43.732;10.404;2024-02-28T08:04:20;12.40;99.90
85456;DHT22;75846;43.732;10.404;2024-02-28T08:06:47;12.40;99.90
85456;DHT22;75846;43.732;10.404;2024-02-28T08:09:16;12.40;99.90
85456;DHT22;75846;43.732;10.404;2024-02-28T08:11:43;12.40;99.90
85456;DHT22;75846;43.732;10.404;2024-02-28T08:14:10;12.40;99.90
85456;DHT22;75846;43.732;10.404;2024-02-28T08:16:38;12.30;99.90
85456;DHT22;75846;43.732;10.404;2024-02-28T08:19:05;12.20;99.90
85456;DHT22;75846;43.732;10.404;2024-02-28T08:21:32;12.20;99.90
85456;DHT22;75846;43.732;10.404;2024-02-28T08:23:59;12.20;99.90
85456;DHT22;75846;43.732;10.404;2024-02-28T08:26:30;12.20;99.90
85456;DHT22;75846;43.732;10.404;2024-02-28T08:28:58;12.20;99.90
85456;DHT22;75846;43.732;10.404;2024-02-28T08:31:25;12.20;99.90
85456;DHT22;75846;43.732;10.404;2024-02-28T08:33:52;12.20;99.90
85456;DHT22;75846;43.732;10.404;2024-02-28T08:36:21;12.20;99.90
85456;DHT22;75846;43.732;10.404;2024-02-28T08:38:48;12.10;99.90
85456;DHT22;75846;43.732;10.404;2024-02-28T08:41:17;12.20;99.90
85456;DHT22;75846;43.732;10.404;2024-02-28T08:43:46;12.20;99.90
85456;DHT22;75846;43.732;10.404;2024-02-28T08:46:14;12.20;99.90
85456;DHT22;75846;43.732;10.404;2024-02-28T08:48:42;12.30;99.90
85456;DHT22;75846;43.732;10.404;2024-02-28T08:51:09;12.50;99.90
85456;DHT22;75846;43.732;10.404;2024-02-28T08:53:37;12.60;99.90
85456;DHT22;75846;43.732;10.404;2024-02-28T08:56:05;12.80;99.90
85456;DHT22;75846;43.732;10.404;2024-02-28T08:58:32;12.90;99.90
85456;DHT22;75846;43.732;10.404;2024-02-28T09:01:01;13.00;99.90
85456;DHT22;75846;43.732;10.404;2024-02-28T09:03:28;12.90;99.90
85456;DHT22;75846;43.732;10.404;2024-02-28T09:05:55;12.80;99.90
85456;DHT22;75846;43.732;10.404;2024-02-28T09:08:23;12.70;99.90
85456;DHT22;75846;43.732;10.404;2024-02-28T09:10:50;12.60;99.90
85456;DHT22;75846;43.732;10.404;2024-02-28T09:13:17;12.50;99.90
85456;DHT22;75846;43.732;10.404;2024-02-28T09:15:45;12.50;99.90
85456;DHT22;75846;43.732;10.404;2024-02-28T09:18:14;12.50;99.90
85456;DHT22;75846;43.732;10.404;2024-02-28T09:20:41;12.40;99.90
85456;DHT22;75846;43.732;10.404;2024-02-28T09:23:09;12.40;99.90
85456;DHT22;75846;43.732;10.404;2024-02-28T09:25:36;12.40;99.90
85456;DHT22;75846;43.732;10.404;2024-02-28T09:28:04;12.50;99.90
85456;DHT22;75846;43.732;10.404;2024-02-28T09:30:31;12.50;99.90
85456;DHT22;75846;43.732;10.404;2024-02-28T09:32:58;12.70;99.90
85456;DHT22;75846;43.732;10.404;2024-02-28T09:35:27;12.80;99.90
85456;DHT22;75846;43.732;10.404;2024-02-28T09:37:54;13.00;99.90
85456;DHT22;75846;43.732;10.404;2024-02-28T09:40:22;13.00;99.90
85456;DHT22;75846;43.732;10.404;2024-02-28T09:42:52;13.00;99.90
85456;DHT22;75846;43.732;10.404;2024-02-28T09:45:20;12.90;99.90
85456;DHT22;75846;43.732;10.404;2024-02-28T09:47:48;12.70;99.90
85456;DHT22;75846;43.732;10.404;2024-02-28T09:50:17;12.70;99.90
85456;DHT22;75846;43.732;10.404;2024-02-28T09:52:46;12.80;99.90
85456;DHT22;75846;43.732;10.404;2024-02-28T09:55:14;12.90;99.90
85456;DHT22;75846;43.732;10.404;2024-02-28T09:57:41;13.10;99.90
85456;DHT22;75846;43.732;10.404;2024-02-28T10:00:10;13.40;99.90
85456;DHT22;75846;43.732;10.404;2024-02-28T10:02:39;13.50;99.90
85456;DHT22;75846;43.732;10.404;2024-02-28T10:05:09;13.60;99.90
85456;DHT22;75846;43.732;10.404;2024-02-28T10:07:36;13.70;99.90
85456;DHT22;75846;43.732;10.404;2024-02-28T10:10:06;13.80;99.90
85456;DHT22;75846;43.732;10.404;2024-02-28T10:12:35;14.10;99.90
85456;DHT22;75846;43.732;10.404;2024-02-28T10:15:02;14.50;99.90
85456;DHT22;75846;43.732;10.404;2024-02-28T10:17:29;14.70;99.90
85456;DHT22;75846;43.732;10.404;2024-02-28T10:19:58;14.90;99.90
85456;DHT22;75846;43.732;10.404;2024-02-28T10:22:25;15.00;99.90
85456;DHT22;75846;43.732;10.404;2024-02-28T10:24:57;15.20;99.90
85456;DHT22;75846;43.732;10.404;2024-02-28T10:27:26;15.20;99.90
85456;DHT22;75846;43.732;10.404;2024-02-28T10:29:53;15.10;99.90
85456;DHT22;75846;43.732;10.404;2024-02-28T10:32:20;15.30;99.90
85456;DHT22;75846;43.732;10.404;2024-02-28T10:34:48;15.60;99.90
85456;DHT22;75846;43.732;10.404;2024-02-28T10:37:16;15.50;99.90
85456;DHT22;75846;43.732;10.404;2024-02-28T10:39:45;15.50;99.90
85456;DHT22;75846;43.732;10.404;2024-02-28T10:42:14;15.30;99.90
85456;DHT22;75846;43.732;10.404;2024-02-28T10:44:43;15.00;99.90
85456;DHT22;75846;43.732;10.404;2024-02-28T10:47:11;14.80;99.90
85456;DHT22;75846;43.732;10.404;2024-02-28T10:49:39;14.60;99.90
85456;DHT22;75846;43.732;10.404;2024-02-28T10:52:06;14.70;99.90
85456;DHT22;75846;43.732;10.404;2024-02-28T10:54:39;14.60;99.90
85456;DHT22;75846;43.732;10.404;2024-02-28T10:57:08;14.50;99.90
85456;DHT22;75846;43.732;10.404;2024-02-28T10:59:37;14.40;99.90
85456;DHT22;75846;43.732;10.404;2024-02-28T11:02:07;14.40;99.90
85456;DHT22;75846;43.732;10.404;2024-02-28T11:04:34;14.40;99.90
85456;DHT22;75846;43.732;10.404;2024-02-28T11:07:01;14.30;99.90
85456;DHT22;75846;43.732;10.404;2024-02-28T11:09:29;14.30;99.90
85456;DHT22;75846;43.732;10.404;2024-02-28T11:11:58;14.40;99.90
85456;DHT22;75846;43.732;10.404;2024-02-28T11:14:25;14.50;99.90
85456;DHT22;75846;43.732;10.404;2024-02-28T11:17:02;14.50;99.90
85456;DHT22;75846;43.732;10.404;2024-02-28T11:19:32;14.50;99.90
85456;DHT22;75846;43.732;10.404;2024-02-28T11:22:00;14.60;99.90
85456;DHT22;75846;43.732;10.404;2024-02-28T11:24:32;14.80;99.90
85456;DHT22;75846;43.732;10.404;2024-02-28T11:27:00;15.00;99.90
85456;DHT22;75846;43.732;10.404;2024-02-28T11:29:29;15.10;99.90
85456;DHT22;75846;43.732;10.404;2024-02-28T11:31:57;15.20;99.90
85456;DHT22;75846;43.732;10.404;2024-02-28T11:34:24;15.40;99.90
85456;DHT22;75846;43.732;10.404;2024-02-28T11:36:53;15.60;99.90
85456;DHT22;75846;43.732;10.404;2024-02-28T11:39:22;15.80;99.90
85456;DHT22;75846;43.732;10.404;2024-02-28T11:41:50;16.40;99.90
85456;DHT22;75846;43.732;10.404;2024-02-28T11:44:19;16.90;99.90
85456;DHT22;75846;43.732;10.404;2024-02-28T11:46:47;17.40;99.90
85456;DHT22;75846;43.732;10.404;2024-02-28T11:49:15;17.60;99.90
85456;DHT22;75846;43.732;10.404;2024-02-28T11:51:42;17.90;99.90
85456;DHT22;75846;43.732;10.404;2024-02-28T11:54:11;17.80;99.90
85456;DHT22;75846;43.732;10.404;2024-02-28T11:56:39;18.60;99.90
85456;DHT22;75846;43.732;10.404;2024-02-28T11:59:08;20.10;99.90
85456;DHT22;75846;43.732;10.404;2024-02-28T12:01:36;20.80;99.90
85456;DHT22;75846;43.732;10.404;2024-02-28T12:04:04;21.60;99.90
85456;DHT22;75846;43.732;10.404;2024-02-28T12:06:33;21.70;99.90
85456;DHT22;75846;43.732;10.404;2024-02-28T12:09:00;22.40;99.90
85456;DHT22;75846;43.732;10.404;2024-02-28T12:11:31;23.60;99.90
85456;DHT22;75846;43.732;10.404;2024-02-28T12:13:59;22.50;99.90
85456;DHT22;75846;43.732;10.404;2024-02-28T12:16:27;21.80;99.90
85456;DHT22;75846;43.732;10.404;2024-02-28T12:18:54;21.60;99.90
85456;DHT22;75846;43.732;10.404;2024-02-28T12:21:22;21.10;99.90
85456;DHT22;75846;43.732;10.404;2024-02-28T12:23:50;21.50;99.90
85456;DHT22;75846;43.732;10.404;2024-02-28T12:26:17;21.50;99.90
85456;DHT22;75846;43.732;10.404;2024-02-28T12:28:47;21.10;99.90
85456;DHT22;75846;43.732;10.404;2024-02-28T12:31:14;21.00;99.90
85456;DHT22;75846;43.732;10.404;2024-02-28T12:33:41;21.10;99.90
85456;DHT22;75846;43.732;10.404;2024-02-28T12:36:09;21.00;99.90
85456;DHT22;75846;43.732;10.404;2024-02-28T12:38:36;21.00;99.90
85456;DHT22;75846;43.732;10.404;2024-02-28T12:41:04;21.00;99.90
85456;DHT22;75846;43.732;10.404;2024-02-28T12:43:31;20.90;99.90
85456;DHT22;75846;43.732;10.404;2024-02-28T12:46:00;20.10;99.90
85456;DHT22;75846;43.732;10.404;2024-02-28T12:48:28;19.60;99.90
85456;DHT22;75846;43.732;10.404;2024-02-28T12:50:56;19.70;99.90
85456;DHT22;75846;43.732;10.404;2024-02-28T12:53:24;19.60;99.90
85456;DHT22;75846;43.732;10.404;2024-02-28T12:55:52;19.40;99.90
85456;DHT22;75846;43.732;10.404;2024-02-28T12:58:19;19.20;99.90
85456;DHT22;75846;43.732;10.404;2024-02-28T13:00:46;19.20;99.90
85456;DHT22;75846;43.732;10.404;2024-02-28T13:03:15;19.00;99.90
85456;DHT22;75846;43.732;10.404;2024-02-28T13:05:43;18.90;99.90
85456;DHT22;75846;43.732;10.404;2024-02-28T13:08:11;18.80;99.90
85456;DHT22;75846;43.732;10.404;2024-02-28T13:10:38;18.60;99.90
85456;DHT22;75846;43.732;10.404;2024-02-28T13:13:07;18.60;99.90
85456;DHT22;75846;43.732;10.404;2024-02-28T13:15:34;18.60;99.90
85456;DHT22;75846;43.732;10.404;2024-02-28T13:18:01;18.70;99.90
85456;DHT22;75846;43.732;10.404;2024-02-28T13:20:34;18.80;99.90
85456;DHT22;75846;43.732;10.404;2024-02-28T13:23:04;18.80;99.90
85456;DHT22;75846;43.732;10.404;2024-02-28T13:25:31;18.80;99.90
85456;DHT22;75846;43.732;10.404;2024-02-28T13:27:58;18.70;99.90
85456;DHT22;75846;43.732;10.404;2024-02-28T13:30:26;18.60;99.90
85456;DHT22;75846;43.732;10.404;2024-02-28T13:32:53;18.40;99.90
85456;DHT22;75846;43.732;10.404;2024-02-28T13:35:20;18.30;99.90
85456;DHT22;75846;43.732;10.404;2024-02-28T13:37:49;18.30;99.90
85456;DHT22;75846;43.732;10.404;2024-02-28T13:40:16;18.40;99.90
85456;DHT22;75846;43.732;10.404;2024-02-28T13:42:43;18.80;99.90
85456;DHT22;75846;43.732;10.404;2024-02-28T13:45:11;19.60;99.90
85456;DHT22;75846;43.732;10.404;2024-02-28T13:47:39;20.60;99.90
85456;DHT22;75846;43.732;10.404;2024-02-28T13:50:06;22.30;99.90
85456;DHT22;75846;43.732;10.404;2024-02-28T13:52:35;23.50;99.90
85456;DHT22;75846;43.732;10.404;2024-02-28T13:55:05;24.10;99.90
85456;DHT22;75846;43.732;10.404;2024-02-28T13:57:32;24.20;99.90
85456;DHT22;75846;43.732;10.404;2024-02-28T13:59:59;25.20;99.90
85456;DHT22;75846;43.732;10.404;2024-02-28T14:02:27;26.10;99.90
85456;DHT22;75846;43.732;10.404;2024-02-28T14:04:54;26.30;97.90
85456;DHT22;75846;43.732;10.404;2024-02-28T14:07:21;26.30;98.20
85456;DHT22;75846;43.732;10.404;2024-02-28T14:09:49;26.40;95.40
85456;DHT22;75846;43.732;10.404;2024-02-28T14:12:17;26.20;97.50
85456;DHT22;75846;43.732;10.404;2024-02-28T14:14:45;26.20;95.20
85456;DHT22;75846;43.732;10.404;2024-02-28T14:17:12;25.60;95.20
85456;DHT22;75846;43.732;10.404;2024-02-28T14:19:39;25.60;94.50
85456;DHT22;75846;43.732;10.404;2024-02-28T14:22:07;25.30;96.10
85456;DHT22;75846;43.732;10.404;2024-02-28T14:24:36;25.40;94.70
85456;DHT22;75846;43.732;10.404;2024-02-28T14:27:04;25.40;95.10
85456;DHT22;75846;43.732;10.404;2024-02-28T14:29:33;24.70;94.10
85456;DHT22;75846;43.732;10.404;2024-02-28T14:32:00;24.60;95.60
85456;DHT22;75846;43.732;10.404;2024-02-28T14:34:28;24.80;95.60
85456;DHT22;75846;43.732;10.404;2024-02-28T14:36:58;25.00;95.20
85456;DHT22;75846;43.732;10.404;2024-02-28T14:39:25;25.30;95.70
85456;DHT22;75846;43.732;10.404;2024-02-28T14:41:52;25.60;94.40
85456;DHT22;75846;43.732;10.404;2024-02-28T14:44:20;25.10;94.10
85456;DHT22;75846;43.732;10.404;2024-02-28T14:46:49;24.90;94.10
85456;DHT22;75846;43.732;10.404;2024-02-28T14:49:17;24.70;94.50
85456;DHT22;75846;43.732;10.404;2024-02-28T14:51:44;24.30;94.50
85456;DHT22;75846;43.732;10.404;2024-02-28T14:54:14;24.20;95.00
85456;DHT22;75846;43.732;10.404;2024-02-28T14:56:41;24.10;95.40
85456;DHT22;75846;43.732;10.404;2024-02-28T14:59:09;23.60;95.60
85456;DHT22;75846;43.732;10.404;2024-02-28T15:01:36;22.90;96.90
85456;DHT22;75846;43.732;10.404;2024-02-28T15:04:05;21.90;97.40
85456;DHT22;75846;43.732;10.404;2024-02-28T15:06:35;21.00;99.10
85456;DHT22;75846;43.732;10.404;2024-02-28T15:09:02;20.20;99.90
85456;DHT22;75846;43.732;10.404;2024-02-28T15:11:32;19.70;99.90
85456;DHT22;75846;43.732;10.404;2024-02-28T15:13:59;19.40;99.90
85456;DHT22;75846;43.732;10.404;2024-02-28T15:16:27;19.20;99.90
85456;DHT22;75846;43.732;10.404;2024-02-28T15:18:55;19.10;99.90